Time,TemperatureF,DewpointF,PressureIn,WindDirection,WindDirectionDegrees,WindSpeedMPH,WindSpeedGustMPH,Humidity,HourlyPrecipIn,Conditions,Clouds,dailyrainin,SoftwareType,DateUTC
2013-08-07 00:02:00,62.0,61.0,-100.00,WNW,300,6.0,9.0,98,0.00,,,0.00,,2013-08-07 05:02:00,
2013-08-07 00:32:00,62.0,61.0,-100.00,WNW,300,7.0,11.0,98,0.00,,,0.00,,2013-08-07 05:32:00,
2013-08-07 00:43:00,62.0,61.0,-100.00,WNW,300,7.0,11.0,98,0.00,,,0.00,,2013-08-07 05:43:00,
2013-08-07 02:52:00,62.0,61.0,-100.00,NW,315,5.0,8.0,99,0.00,,,0.00,,2013-08-07 07:52:00,
2013-08-07 03:01:00,62.0,61.0,-100.00,NW,315,5.0,8.0,99,0.00,,,0.00,,2013-08-07 08:01:00,
2013-08-07 03:11:00,62.0,61.0,-100.00,NW,315,5.0,8.0,99,0.00,,,0.00,,2013-08-07 08:11:00,
2013-08-07 03:32:00,62.0,61.0,-100.00,NW,310,7.0,11.0,98,0.00,,,0.00,,2013-08-07 08:32:00,
2013-08-07 03:44:00,62.0,61.0,-100.00,NW,310,7.0,11.0,98,0.00,,,0.00,,2013-08-07 08:44:00,
2013-08-07 03:52:00,62.0,61.0,-100.00,NW,305,6.0,11.0,98,0.00,,,0.00,,2013-08-07 08:52:00,
2013-08-07 04:02:00,62.0,61.0,-100.00,NW,305,6.0,11.0,98,0.00,,,0.00,,2013-08-07 09:02:00,
2013-08-07 04:11:00,62.0,61.0,-100.00,NW,305,6.0,11.0,98,0.00,,,0.00,,2013-08-07 09:11:00,
2013-08-07 04:22:00,62.0,61.0,-100.00,NW,305,6.0,11.0,98,0.00,,,0.00,,2013-08-07 09:22:00,
2013-08-07 04:31:00,61.0,61.0,-100.00,NW,320,7.0,12.0,98,0.00,,,0.00,,2013-08-07 09:31:00,
2013-08-07 04:54:00,61.0,61.0,-100.00,NW,320,7.0,12.0,98,0.00,,,0.00,,2013-08-07 09:54:00,
2013-08-07 05:01:00,61.0,61.0,-100.00,NW,320,7.0,12.0,98,0.00,,,0.00,,2013-08-07 10:01:00,
2013-08-07 05:11:00,61.0,61.0,-100.00,NW,320,7.0,12.0,98,0.00,,,0.00,,2013-08-07 10:11:00,
2013-08-07 05:21:00,61.0,61.0,-100.00,NW,320,7.0,12.0,98,0.00,,,0.00,,2013-08-07 10:21:00,
2013-08-07 06:32:00,60.0,59.0,-100.00,NNW,330,6.0,12.0,98,0.00,,,0.00,,2013-08-07 11:32:00,
2013-08-07 06:43:00,60.0,59.0,-100.00,NNW,330,6.0,12.0,98,0.00,,,0.00,,2013-08-07 11:43:00,
2013-08-07 08:22:00,60.0,59.0,-100.00,NW,325,6.0,11.0,93,0.00,,,0.00,,2013-08-07 13:22:00,
2013-08-07 08:32:00,60.0,59.0,-100.00,NW,325,6.0,11.0,93,0.00,,,0.00,,2013-08-07 13:32:00,
2013-08-07 08:44:00,60.0,59.0,-100.00,NW,325,6.0,11.0,93,0.00,,,0.00,,2013-08-07 13:44:00,
2013-08-07 09:11:00,63.0,59.0,-100.00,North,5,5.0,10.0,82,0.00,,,0.00,,2013-08-07 14:11:00,
2013-08-07 09:22:00,64.0,57.0,-100.00,North,350,7.0,11.0,78,0.00,,,0.00,,2013-08-07 14:22:00,
2013-08-07 09:43:00,65.0,55.0,-100.00,North,5,8.0,13.0,70,0.00,,,0.00,,2013-08-07 14:43:00,
2013-08-07 10:12:00,66.0,54.0,-100.00,North,10,9.0,12.0,64,0.00,,,0.00,,2013-08-07 15:12:00,
2013-08-07 10:53:00,68.0,54.0,-100.00,NNW,345,4.0,10.0,60,0.00,,,0.00,,2013-08-07 15:53:00,
2013-08-07 11:11:00,69.0,54.0,-100.00,NNE,25,6.0,12.0,58,0.00,,,0.00,,2013-08-07 16:11:00,
2013-08-07 11:43:00,69.0,55.0,-100.00,NNW,345,5.0,9.0,61,0.00,,,0.00,,2013-08-07 16:43:00,
2013-08-07 12:01:00,69.0,52.0,-100.00,NE,40,7.0,11.0,53,0.00,,,0.00,,2013-08-07 17:01:00,
2013-08-07 12:11:00,70.0,54.0,-100.00,NNE,30,6.0,9.0,54,0.00,,,0.00,,2013-08-07 17:11:00,
2013-08-07 12:43:00,69.0,54.0,-100.00,NNW,335,5.0,11.0,56,0.00,,,0.00,,2013-08-07 17:43:00,
2013-08-07 12:52:00,71.0,54.0,-100.00,NNE,15,5.0,12.0,53,0.00,,,0.00,,2013-08-07 17:52:00,
2013-08-07 13:02:00,71.0,55.0,-100.00,North,5,4.0,9.0,59,0.00,,,0.00,,2013-08-07 18:02:00,
2013-08-07 13:32:00,72.0,54.0,-100.00,North,5,3.0,6.0,50,0.00,,,0.00,,2013-08-07 18:32:00,
2013-08-07 13:52:00,72.0,52.0,-100.00,North,355,6.0,9.0,49,0.00,,,0.00,,2013-08-07 18:52:00,
2013-08-07 14:11:00,72.0,50.0,-100.00,North,355,3.0,9.0,44,0.00,,,0.00,,2013-08-07 19:11:00,
2013-08-07 14:52:00,73.0,50.0,-100.00,NE,50,3.0,6.0,45,0.00,,,0.00,,2013-08-07 19:52:00,
2013-08-07 15:02:00,74.0,52.0,-100.00,NW,325,2.0,7.0,46,0.00,,,0.00,,2013-08-07 20:02:00,
2013-08-07 15:32:00,74.0,54.0,-100.00,North,5,4.0,7.0,48,0.00,,,0.00,,2013-08-07 20:32:00,
2013-08-07 15:52:00,74.0,55.0,-100.00,North,10,4.0,11.0,50,0.00,,,0.00,,2013-08-07 20:52:00,
2013-08-07 16:01:00,73.0,54.0,-100.00,NNW,340,6.0,7.0,51,0.00,,,0.00,,2013-08-07 21:01:00,
2013-08-07 16:11:00,74.0,54.0,-100.00,NNE,25,6.0,8.0,48,0.00,,,0.00,,2013-08-07 21:11:00,
2013-08-07 16:32:00,74.0,52.0,-100.00,ESE,115,2.0,6.0,46,0.00,,,0.00,,2013-08-07 21:32:00,
2013-08-07 16:43:00,74.0,54.0,-100.00,NNE,25,4.0,6.0,48,0.00,,,0.00,,2013-08-07 21:43:00,
2013-08-07 17:01:00,74.0,54.0,-100.00,NE,35,6.0,7.0,47,0.00,,,0.00,,2013-08-07 22:01:00,
2013-08-07 17:32:00,75.0,54.0,-100.00,North,10,3.0,4.0,48,0.00,,,0.00,,2013-08-07 22:32:00,
2013-08-07 17:52:00,74.0,55.0,-100.00,West,270,2.0,4.0,50,0.00,,,0.00,,2013-08-07 22:52:00,
2013-08-07 18:01:00,74.0,54.0,-100.00,NNW,340,2.0,4.0,49,0.00,,,0.00,,2013-08-07 23:01:00,
2013-08-07 18:32:00,73.0,54.0,-100.00,WNW,295,4.0,6.0,49,0.00,,,0.00,,2013-08-07 23:32:00,
2013-08-07 18:43:00,74.0,54.0,-100.00,NW,315,3.0,6.0,49,0.00,,,0.00,,2013-08-07 23:43:00,
2013-08-07 18:52:00,75.0,57.0,-100.00,North,5,2.0,4.0,53,0.00,,,0.00,,2013-08-07 23:52:00,
2013-08-07 19:01:00,75.0,52.0,-100.00,NE,40,1.0,3.0,45,0.00,,,0.00,,2013-08-08 00:01:00,
2013-08-07 19:52:00,74.0,52.0,-100.00,WNW,285,0.0,2.0,44,0.00,,,0.00,,2013-08-08 00:52:00,
2013-08-07 20:02:00,73.0,54.0,-100.00,West,280,1.0,2.0,50,0.00,,,0.00,,2013-08-08 01:02:00,
2013-08-07 20:32:00,70.0,55.0,-100.00,West,265,1.0,2.0,59,0.00,,,0.00,,2013-08-08 01:32:00,
2013-08-07 20:52:00,68.0,55.0,-100.00,West,270,0.0,1.0,65,0.00,,,0.00,,2013-08-08 01:52:00,
2013-08-07 21:02:00,66.0,57.0,-100.00,WSW,245,0.0,0.0,74,0.00,,,0.00,,2013-08-08 02:02:00,
2013-08-07 21:32:00,63.0,57.0,-100.00,North,10,0.0,0.0,79,0.00,,,0.00,,2013-08-08 02:32:00,
2013-08-07 22:01:00,62.0,57.0,-100.00,ESE,105,4.0,4.0,82,0.00,,,0.00,,2013-08-08 03:01:00,
2013-08-07 22:52:00,59.0,55.0,-100.00,SW,215,1.0,2.0,89,0.00,,,0.00,,2013-08-08 03:52:00,
2013-08-07 23:01:00,60.0,55.0,-100.00,SE,140,2.0,2.0,86,0.00,,,0.00,,2013-08-08 04:01:00,
2013-08-07 23:11:00,61.0,55.0,-100.00,SSE,155,2.0,2.0,81,0.00,,,0.00,,2013-08-08 04:11:00,
2013-08-07 23:53:00,59.0,54.0,-100.00,SE,135,5.0,6.0,85,0.00,,,0.00,,2013-08-08 04:53:00,